createdAt,value
2023-01-06T00:00:25.571Z,9.20
2023-01-06T00:02:52.430Z,9.20
2023-01-06T00:05:19.276Z,9.20
2023-01-06T00:07:48.532Z,9.20
2023-01-06T00:10:15.369Z,9.30
2023-01-06T00:12:44.583Z,9.30
2023-01-06T00:15:11.574Z,9.30
2023-01-06T00:17:38.373Z,9.30
2023-01-06T00:20:05.464Z,9.40
2023-01-06T00:22:32.235Z,9.40
2023-01-06T00:24:59.064Z,9.40
2023-01-06T00:27:25.910Z,9.40
2023-01-06T00:29:52.813Z,9.40
2023-01-06T00:32:19.975Z,9.40
2023-01-06T00:34:46.851Z,9.40
2023-01-06T00:37:13.645Z,9.40
2023-01-06T00:39:41.129Z,9.40
2023-01-06T00:42:08.198Z,9.40
2023-01-06T00:44:36.352Z,9.40
2023-01-06T00:47:04.508Z,9.40
2023-01-06T00:49:31.517Z,9.40
2023-01-06T00:51:58.346Z,9.50
2023-01-06T00:54:25.704Z,9.40
2023-01-06T00:56:54.484Z,9.40
2023-01-06T00:59:23.019Z,9.40
2023-01-06T01:01:51.177Z,9.40
2023-01-06T01:04:18.832Z,9.40
2023-01-06T01:06:46.695Z,9.40
2023-01-06T01:09:15.464Z,9.40
2023-01-06T01:12:00.999Z,9.40
2023-01-06T01:14:28.091Z,9.30
2023-01-06T01:16:54.802Z,9.40
2023-01-06T01:19:21.907Z,9.40
2023-01-06T01:21:48.801Z,9.40
2023-01-06T01:24:17.606Z,9.40
2023-01-06T01:26:44.441Z,9.40
2023-01-06T01:29:12.475Z,9.40
2023-01-06T01:31:39.549Z,9.40
2023-01-06T01:34:06.574Z,9.40
2023-01-06T01:36:33.614Z,9.40
2023-01-06T01:39:00.709Z,9.40
2023-01-06T01:41:28.317Z,9.40
2023-01-06T01:43:59.875Z,9.40
2023-01-06T01:46:29.511Z,9.40
2023-01-06T01:48:58.639Z,9.40
2023-01-06T01:51:29.729Z,9.40
2023-01-06T01:53:58.933Z,9.50
2023-01-06T01:56:28.098Z,9.40
2023-01-06T01:59:05.196Z,9.50
2023-01-06T02:01:32.509Z,9.50
2023-01-06T02:04:00.296Z,9.50
2023-01-06T02:06:29.762Z,9.50
2023-01-06T02:09:00.662Z,9.50
2023-01-06T02:11:29.410Z,9.50
2023-01-06T02:13:59.941Z,9.60
2023-01-06T02:16:29.703Z,9.60
2023-01-06T02:19:13.010Z,9.60
2023-01-06T02:21:58.754Z,9.50
2023-01-06T02:24:28.735Z,9.50
2023-01-06T02:27:14.528Z,9.50
2023-01-06T02:30:00.788Z,9.50
2023-01-06T02:32:37.638Z,9.50
2023-01-06T02:35:05.508Z,9.60
2023-01-06T02:37:40.298Z,9.50
2023-01-06T02:40:17.766Z,9.60
2023-01-06T02:42:54.268Z,9.60
2023-01-06T02:45:32.327Z,9.60
2023-01-06T02:48:11.423Z,9.60
2023-01-06T02:50:57.201Z,9.60
2023-01-06T02:53:27.117Z,9.70
2023-01-06T02:55:57.199Z,9.70
2023-01-06T02:58:27.547Z,9.70
2023-01-06T03:00:57.636Z,9.70
2023-01-06T03:03:26.388Z,9.70
2023-01-06T03:05:55.440Z,9.70
2023-01-06T03:08:24.267Z,9.70
2023-01-06T03:10:52.166Z,9.80
2023-01-06T03:17:13.330Z,9.80
2023-01-06T03:19:41.177Z,9.90
2023-01-06T03:22:10.216Z,9.90
2023-01-06T03:24:38.292Z,9.90
2023-01-06T03:27:07.236Z,9.80
2023-01-06T03:29:35.935Z,9.90
2023-01-06T03:32:12.875Z,9.90
2023-01-06T03:34:58.710Z,10.00
2023-01-06T03:37:46.166Z,10.00
2023-01-06T03:40:23.914Z,10.00
2023-01-06T03:43:11.527Z,10.00
2023-01-06T03:45:59.250Z,9.90
2023-01-06T03:48:42.564Z,9.90
2023-01-06T03:51:09.340Z,9.90
2023-01-06T03:53:46.434Z,9.90
2023-01-06T03:56:25.509Z,9.80
2023-01-06T03:58:55.369Z,9.80
2023-01-06T04:01:23.883Z,9.90
2023-01-06T04:03:54.824Z,9.90
2023-01-06T04:06:25.047Z,9.90
2023-01-06T04:08:52.662Z,9.80
2023-01-06T04:11:38.594Z,9.80
2023-01-06T04:14:05.617Z,9.80
2023-01-06T04:16:33.365Z,9.80
2023-01-06T04:19:00.332Z,9.90
2023-01-06T04:21:27.164Z,9.80
2023-01-06T04:23:53.909Z,9.80
2023-01-06T04:26:20.816Z,9.70
2023-01-06T04:28:50.542Z,9.70
2023-01-06T04:31:17.999Z,9.70
2023-01-06T04:33:45.785Z,9.70
2023-01-06T04:36:14.531Z,9.70
2023-01-06T04:38:44.849Z,9.70
2023-01-06T04:41:11.671Z,9.70
2023-01-06T04:43:38.424Z,9.70
2023-01-06T04:46:05.457Z,9.80
2023-01-06T04:48:32.225Z,9.80
2023-01-06T04:51:06.706Z,9.80
2023-01-06T04:53:37.339Z,9.80
2023-01-06T04:56:04.867Z,9.80
2023-01-06T04:58:32.073Z,9.80
2023-01-06T05:01:02.308Z,9.80
2023-01-06T05:03:29.104Z,9.80
2023-01-06T05:05:55.896Z,9.80
2023-01-06T05:08:22.662Z,9.80
2023-01-06T05:10:49.487Z,9.90
2023-01-06T05:13:16.229Z,9.90
2023-01-06T05:15:43.073Z,9.90
2023-01-06T05:18:10.186Z,9.90
2023-01-06T05:20:36.960Z,9.90
2023-01-06T05:23:03.787Z,10.00
2023-01-06T05:25:30.549Z,10.00
2023-01-06T05:27:57.345Z,10.00
2023-01-06T05:30:24.109Z,10.00
2023-01-06T05:32:50.841Z,10.10
2023-01-06T05:35:17.594Z,10.00
2023-01-06T05:37:44.364Z,10.00
2023-01-06T05:40:11.215Z,10.00
2023-01-06T05:42:37.915Z,10.10
2023-01-06T05:45:04.897Z,10.10
2023-01-06T05:47:31.628Z,10.10
2023-01-06T05:49:58.468Z,10.00
2023-01-06T05:52:25.276Z,10.10
2023-01-06T05:54:52.020Z,10.10
2023-01-06T05:57:19.239Z,10.10
2023-01-06T05:59:46.078Z,10.10
2023-01-06T06:02:12.834Z,10.10
2023-01-06T06:04:39.600Z,10.00
2023-01-06T06:07:06.359Z,10.00
2023-01-06T06:09:33.147Z,10.00
2023-01-06T06:11:59.958Z,10.10
2023-01-06T06:14:26.872Z,10.10
2023-01-06T06:16:53.747Z,10.10
2023-01-06T06:19:20.541Z,10.20
2023-01-06T06:21:47.402Z,10.20
2023-01-06T06:24:14.291Z,10.20
2023-01-06T06:26:41.018Z,10.20
2023-01-06T06:29:07.821Z,10.20
2023-01-06T06:31:34.827Z,10.20
2023-01-06T06:34:02.276Z,10.20
2023-01-06T06:36:29.901Z,10.20
2023-01-06T06:38:56.952Z,10.20
2023-01-06T06:41:24.598Z,10.20
2023-01-06T06:43:51.942Z,10.20
2023-01-06T06:46:19.019Z,10.20
2023-01-06T06:48:46.160Z,10.20
2023-01-06T06:51:14.802Z,10.20
2023-01-06T06:53:41.609Z,10.20
2023-01-06T06:56:09.152Z,10.20
2023-01-06T06:58:36.288Z,10.20
2023-01-06T07:01:03.912Z,10.10
2023-01-06T07:03:30.719Z,10.10
2023-01-06T07:05:57.490Z,10.10
2023-01-06T07:08:24.261Z,10.10
2023-01-06T07:10:51.719Z,10.20
2023-01-06T07:13:18.457Z,10.10
2023-01-06T07:15:45.332Z,10.10
2023-01-06T07:18:12.664Z,10.10
2023-01-06T07:20:39.629Z,10.20
2023-01-06T07:23:06.404Z,10.20
2023-01-06T07:25:33.231Z,10.30
2023-01-06T07:28:01.124Z,10.20
2023-01-06T07:30:27.926Z,10.30
2023-01-06T07:32:54.657Z,10.30
2023-01-06T07:35:21.464Z,10.20
2023-01-06T07:37:48.236Z,10.20
2023-01-06T07:40:15.402Z,10.20
2023-01-06T07:42:42.215Z,10.10
2023-01-06T07:45:09.364Z,10.20
2023-01-06T07:47:36.160Z,10.20
2023-01-06T07:50:03.756Z,10.20
2023-01-06T07:52:30.589Z,10.20
2023-01-06T07:55:00.179Z,10.20
2023-01-06T07:57:27.283Z,10.20
2023-01-06T07:59:54.053Z,10.20
2023-01-06T08:02:21.082Z,10.10
2023-01-06T08:04:48.113Z,10.10
2023-01-06T08:07:15.312Z,10.10
2023-01-06T08:09:42.275Z,10.10
2023-01-06T08:12:09.063Z,10.10
2023-01-06T08:14:35.862Z,10.10
2023-01-06T08:17:02.624Z,10.20
2023-01-06T08:19:29.415Z,10.10
2023-01-06T08:21:56.198Z,10.20
2023-01-06T08:24:22.974Z,10.20
2023-01-06T08:26:49.710Z,10.30
2023-01-06T08:29:16.503Z,10.30
2023-01-06T08:31:43.319Z,10.40
2023-01-06T08:34:11.557Z,10.40
2023-01-06T08:36:39.266Z,10.40
2023-01-06T08:39:06.017Z,10.40
2023-01-06T08:41:32.982Z,10.40
2023-01-06T08:43:59.767Z,10.30
2023-01-06T08:46:26.722Z,10.30
2023-01-06T08:48:55.342Z,10.30
2023-01-06T08:51:23.849Z,10.40
2023-01-06T08:53:51.038Z,10.30
2023-01-06T08:56:22.771Z,10.30
2023-01-06T08:58:58.340Z,10.30
2023-01-06T09:01:27.025Z,10.30
2023-01-06T09:03:54.018Z,10.20
2023-01-06T09:06:22.217Z,10.20
2023-01-06T09:08:48.959Z,10.20
2023-01-06T09:11:16.990Z,10.20
2023-01-06T09:13:44.435Z,10.20
2023-01-06T09:16:11.810Z,10.30
2023-01-06T09:18:39.023Z,10.30
2023-01-06T09:21:06.047Z,10.30
2023-01-06T09:23:32.854Z,10.30
2023-01-06T09:25:59.629Z,10.20
2023-01-06T09:28:26.510Z,10.10
2023-01-06T09:30:53.406Z,10.00
2023-01-06T09:33:20.205Z,10.00
2023-01-06T09:35:47.182Z,10.00
2023-01-06T09:38:14.265Z,9.90
2023-01-06T09:40:41.009Z,9.90
2023-01-06T09:43:07.793Z,9.80
2023-01-06T09:45:38.187Z,9.80
2023-01-06T09:48:06.451Z,9.80
2023-01-06T09:50:54.137Z,9.70
2023-01-06T09:53:47.366Z,9.70
2023-01-06T09:56:14.999Z,9.70
2023-01-06T09:59:00.450Z,9.70
2023-01-06T10:01:37.931Z,9.70
2023-01-06T10:04:04.752Z,9.60
2023-01-06T10:07:01.056Z,9.60
2023-01-06T10:09:36.787Z,9.50
2023-01-06T10:12:23.062Z,9.50
2023-01-06T10:14:52.879Z,9.50
2023-01-06T10:17:19.687Z,9.60
2023-01-06T10:19:52.217Z,9.60
2023-01-06T10:22:19.227Z,9.60
2023-01-06T10:24:45.974Z,9.50
2023-01-06T10:27:27.100Z,9.50
2023-01-06T10:29:55.338Z,9.60
2023-01-06T10:32:22.843Z,9.60
2023-01-06T10:34:50.604Z,9.60
2023-01-06T10:37:17.395Z,9.60
2023-01-06T10:39:45.967Z,9.70
2023-01-06T10:42:40.127Z,9.70
2023-01-06T10:45:10.707Z,9.70
2023-01-06T10:47:37.773Z,9.70
2023-01-06T10:50:05.335Z,9.70
2023-01-06T10:52:32.353Z,9.70
2023-01-06T10:55:02.489Z,9.70
2023-01-06T10:57:32.834Z,9.80
2023-01-06T11:00:18.507Z,9.70
2023-01-06T11:02:46.517Z,9.70
2023-01-06T11:05:24.263Z,9.60
2023-01-06T11:08:13.027Z,9.60
2023-01-06T11:10:43.439Z,9.60
2023-01-06T11:13:28.962Z,9.60
2023-01-06T11:15:59.776Z,9.60
2023-01-06T11:18:28.130Z,9.70
2023-01-06T11:21:04.713Z,9.70
2023-01-06T11:23:32.003Z,9.70
2023-01-06T11:26:02.457Z,9.70
2023-01-06T11:28:30.701Z,9.70
2023-01-06T11:31:00.326Z,9.80
2023-01-06T11:33:28.529Z,9.80
2023-01-06T11:35:55.902Z,9.80
2023-01-06T11:38:23.413Z,9.80
2023-01-06T11:40:51.353Z,9.80
2023-01-06T11:43:22.269Z,9.80
2023-01-06T11:45:59.734Z,9.90
2023-01-06T11:48:28.343Z,10.00
2023-01-06T11:50:56.917Z,10.00
2023-01-06T11:53:26.693Z,10.00
2023-01-06T11:56:02.488Z,10.00
2023-01-06T11:58:38.262Z,10.00
2023-01-06T12:01:12.098Z,10.10
2023-01-06T12:03:41.549Z,10.10
2023-01-06T12:06:18.788Z,10.10
2023-01-06T12:09:04.256Z,10.10
2023-01-06T12:11:50.924Z,10.10
2023-01-06T12:14:28.367Z,10.10
2023-01-06T12:17:13.983Z,10.10
2023-01-06T12:19:40.869Z,10.00
2023-01-06T12:22:18.621Z,10.10
2023-01-06T12:24:46.721Z,10.10
2023-01-06T12:27:16.051Z,10.30
2023-01-06T12:29:42.801Z,10.40
2023-01-06T12:32:20.679Z,10.30
2023-01-06T12:34:50.362Z,10.30
2023-01-06T12:37:38.593Z,10.20
2023-01-06T12:40:17.682Z,10.30
2023-01-06T12:42:50.396Z,10.30
2023-01-06T12:45:36.344Z,10.30
2023-01-06T12:48:05.558Z,10.20
2023-01-06T12:50:32.293Z,10.30
2023-01-06T12:53:19.649Z,10.30
2023-01-06T12:55:59.793Z,10.30
2023-01-06T12:58:36.016Z,10.30
2023-01-06T13:01:07.634Z,10.50
2023-01-06T13:03:53.261Z,10.60
2023-01-06T13:06:38.716Z,10.60
2023-01-06T13:09:20.060Z,10.70
2023-01-06T13:12:03.197Z,11.00
2023-01-06T13:14:41.326Z,11.10
2023-01-06T13:17:13.961Z,11.20
2023-01-06T13:19:50.254Z,11.30
2023-01-06T13:22:33.082Z,11.30
2023-01-06T13:25:13.710Z,11.40
2023-01-06T13:27:55.304Z,11.40
2023-01-06T13:30:31.316Z,11.40
2023-01-06T13:33:17.221Z,11.60
2023-01-06T13:36:03.011Z,11.60
2023-01-06T13:38:33.292Z,11.70
2023-01-06T13:41:01.986Z,11.80
2023-01-06T13:43:29.762Z,11.80
2023-01-06T13:46:01.887Z,11.70
2023-01-06T13:48:30.964Z,11.70
2023-01-06T13:51:03.354Z,11.70
2023-01-06T13:53:36.162Z,11.90
2023-01-06T13:56:11.998Z,12.10
2023-01-06T13:58:42.367Z,12.10
2023-01-06T14:01:13.427Z,12.10
2023-01-06T14:03:41.399Z,12.10
2023-01-06T14:06:12.412Z,12.10
2023-01-06T14:08:48.704Z,11.90
2023-01-06T14:11:21.873Z,11.60
2023-01-06T14:13:54.626Z,11.60
2023-01-06T14:16:22.404Z,11.70
2023-01-06T14:18:52.238Z,11.80
2023-01-06T14:21:23.109Z,11.70
2023-01-06T14:24:06.927Z,11.70
2023-01-06T14:26:46.890Z,11.60
2023-01-06T14:29:32.636Z,11.50
2023-01-06T14:31:59.446Z,11.50
2023-01-06T14:34:26.260Z,11.50
2023-01-06T14:36:55.224Z,11.30
2023-01-06T14:39:24.766Z,11.20
2023-01-06T14:41:55.387Z,11.10
2023-01-06T14:44:26.680Z,11.00
2023-01-06T14:47:07.215Z,10.70
2023-01-06T14:49:46.165Z,10.60
2023-01-06T14:52:16.267Z,10.60
2023-01-06T14:54:44.258Z,10.50
2023-01-06T14:57:44.424Z,10.50
2023-01-06T15:00:16.449Z,10.50
2023-01-06T15:02:47.458Z,10.40
2023-01-06T15:05:19.160Z,10.40
2023-01-06T15:08:04.807Z,10.30
2023-01-06T15:10:38.336Z,10.10
2023-01-06T15:13:21.737Z,10.00
2023-01-06T15:15:58.740Z,9.90
2023-01-06T15:18:25.544Z,9.80
2023-01-06T15:20:53.749Z,9.70
2023-01-06T15:23:20.897Z,9.70
2023-01-06T15:25:48.454Z,9.70
2023-01-06T15:28:31.473Z,9.60
2023-01-06T15:30:59.182Z,9.60
2023-01-06T15:33:29.487Z,9.50
2023-01-06T15:35:56.562Z,9.50
2023-01-06T15:38:31.465Z,9.60
2023-01-06T15:40:58.294Z,9.60
2023-01-06T15:43:28.464Z,9.60
2023-01-06T15:46:03.017Z,9.60
2023-01-06T15:48:30.929Z,9.60
2023-01-06T15:50:57.811Z,9.50
2023-01-06T15:53:28.278Z,9.40
2023-01-06T15:55:56.348Z,9.30
2023-01-06T15:58:25.185Z,9.30
2023-01-06T16:00:57.788Z,9.20
2023-01-06T16:03:25.691Z,9.10
2023-01-06T16:05:57.687Z,9.00
2023-01-06T16:08:30.354Z,8.90
2023-01-06T16:11:15.861Z,8.80
2023-01-06T16:13:43.391Z,8.80
2023-01-06T16:16:16.347Z,8.80
2023-01-06T16:18:43.909Z,8.70
2023-01-06T16:21:16.784Z,8.70
2023-01-06T16:23:48.714Z,8.70
2023-01-06T16:26:17.515Z,8.60
2023-01-06T16:28:46.694Z,8.50
2023-01-06T16:31:14.632Z,8.40
2023-01-06T16:33:47.801Z,8.30
2023-01-06T16:36:15.918Z,8.30
2023-01-06T16:38:43.027Z,8.30
2023-01-06T16:41:13.991Z,8.30
2023-01-06T16:43:40.852Z,8.20
2023-01-06T16:46:19.306Z,8.20
2023-01-06T16:48:46.172Z,8.20
2023-01-06T16:51:14.971Z,8.20
2023-01-06T16:53:43.590Z,8.20
2023-01-06T16:56:18.558Z,8.20
2023-01-06T16:58:45.706Z,8.10
2023-01-06T17:01:14.076Z,8.10
2023-01-06T17:03:41.494Z,8.10
2023-01-06T17:06:27.372Z,8.10
2023-01-06T17:08:55.497Z,8.00
2023-01-06T17:11:24.625Z,8.00
2023-01-06T17:13:59.245Z,8.10
2023-01-06T17:16:31.050Z,8.10
2023-01-06T17:18:59.731Z,8.10
2023-01-06T17:21:32.758Z,8.30
2023-01-06T17:24:06.345Z,8.40
2023-01-06T17:26:33.217Z,8.40
2023-01-06T17:29:00.670Z,8.40
2023-01-06T17:31:31.477Z,8.50
2023-01-06T17:34:17.193Z,8.60
2023-01-06T17:36:45.630Z,8.50
2023-01-06T17:39:23.197Z,8.50
2023-01-06T17:41:52.127Z,8.50
2023-01-06T17:44:21.868Z,8.50
2023-01-06T17:46:49.901Z,8.50
2023-01-06T17:49:19.664Z,8.40
2023-01-06T17:51:46.674Z,8.30
2023-01-06T17:54:36.486Z,8.30
2023-01-06T17:57:23.570Z,8.30
2023-01-06T17:59:52.521Z,8.30
2023-01-06T18:02:19.304Z,8.30
2023-01-06T18:04:46.569Z,8.30
2023-01-06T18:07:13.696Z,8.40
2023-01-06T18:09:41.080Z,8.40
2023-01-06T18:12:12.925Z,8.40
2023-01-06T18:14:41.941Z,8.30
2023-01-06T18:17:20.785Z,8.20
2023-01-06T18:19:47.569Z,8.20
2023-01-06T18:22:14.376Z,8.10
2023-01-06T18:24:41.767Z,8.00
2023-01-06T18:27:20.715Z,7.90
2023-01-06T18:29:48.427Z,7.80
2023-01-06T18:32:25.900Z,7.80
2023-01-06T18:34:53.709Z,7.80
2023-01-06T18:37:25.356Z,7.80
2023-01-06T18:39:54.099Z,7.80
2023-01-06T18:42:25.406Z,7.70
2023-01-06T18:44:56.962Z,7.90
2023-01-06T18:47:23.837Z,8.00
2023-01-06T18:49:54.717Z,8.00
2023-01-06T18:52:41.786Z,8.10
2023-01-06T18:55:14.455Z,8.10
2023-01-06T18:57:45.751Z,8.10
2023-01-06T19:00:33.180Z,8.10
2023-01-06T19:03:08.713Z,8.20
2023-01-06T19:05:35.563Z,8.20
2023-01-06T19:08:10.577Z,8.20
2023-01-06T19:10:37.723Z,8.20
2023-01-06T19:13:07.657Z,8.30
2023-01-06T19:15:34.401Z,8.30
2023-01-06T19:18:02.825Z,8.20
2023-01-06T19:20:35.046Z,8.20
2023-01-06T19:23:13.615Z,8.20
2023-01-06T19:25:41.563Z,8.20
2023-01-06T19:28:15.549Z,8.10
2023-01-06T19:30:43.601Z,8.20
2023-01-06T19:33:16.170Z,8.30
2023-01-06T19:35:42.989Z,8.50
2023-01-06T19:38:19.879Z,8.60
2023-01-06T19:40:46.652Z,8.50
2023-01-06T19:43:14.982Z,8.50
2023-01-06T19:45:41.900Z,8.50
2023-01-06T19:48:13.706Z,8.40
2023-01-06T19:50:40.607Z,8.40
2023-01-06T19:53:18.449Z,8.40
2023-01-06T19:55:45.182Z,8.40
2023-01-06T19:58:17.978Z,8.40
2023-01-06T20:00:47.587Z,8.40
2023-01-06T20:03:29.557Z,8.50
2023-01-06T20:05:56.454Z,8.40
2023-01-06T20:08:23.162Z,8.40
2023-01-06T20:10:50.369Z,8.40
2023-01-06T20:13:17.162Z,8.40
2023-01-06T20:15:43.881Z,8.40
2023-01-06T20:18:10.693Z,8.40
2023-01-06T20:20:37.479Z,8.40
2023-01-06T20:23:04.295Z,8.40
2023-01-06T20:25:31.237Z,8.40
2023-01-06T20:27:57.989Z,8.50
2023-01-06T20:30:24.757Z,8.50
2023-01-06T20:32:51.537Z,8.50
2023-01-06T20:35:20.075Z,8.40
2023-01-06T20:37:46.833Z,8.50
2023-01-06T20:40:13.844Z,8.40
2023-01-06T20:42:40.657Z,8.40
2023-01-06T20:45:07.651Z,8.40
2023-01-06T20:47:34.569Z,8.30
2023-01-06T20:50:01.379Z,8.40
2023-01-06T20:52:28.171Z,8.40
2023-01-06T20:54:54.969Z,8.40
2023-01-06T20:57:21.886Z,8.30
2023-01-06T20:59:48.647Z,8.30
2023-01-06T21:02:15.564Z,8.40
2023-01-06T21:04:42.458Z,8.40
2023-01-06T21:07:09.266Z,8.50
2023-01-06T21:09:36.144Z,8.60
2023-01-06T21:12:03.035Z,8.50
2023-01-06T21:14:30.844Z,8.60
2023-01-06T21:16:57.719Z,8.70
2023-01-06T21:19:24.519Z,8.70
2023-01-06T21:21:51.380Z,8.70
2023-01-06T21:24:18.092Z,8.70
2023-01-06T21:26:44.877Z,8.80
2023-01-06T21:29:11.638Z,8.80
2023-01-06T21:31:40.113Z,8.80
2023-01-06T21:34:07.392Z,8.80
2023-01-06T21:36:34.142Z,8.90
2023-01-06T21:39:00.948Z,8.90
2023-01-06T21:41:46.501Z,8.90
2023-01-06T21:44:13.357Z,9.00
2023-01-06T21:46:40.243Z,9.10
2023-01-06T21:49:07.291Z,9.10
2023-01-06T21:51:34.541Z,9.10
2023-01-06T21:54:01.728Z,9.00
2023-01-06T21:56:28.533Z,9.20
2023-01-06T21:58:55.771Z,9.10
2023-01-06T22:01:22.636Z,9.10
2023-01-06T22:03:50.111Z,9.10
2023-01-06T22:06:19.431Z,9.10
2023-01-06T22:08:50.242Z,9.10
2023-01-06T22:11:17.281Z,9.00
2023-01-06T22:13:44.119Z,9.10
2023-01-06T22:16:11.099Z,9.10
2023-01-06T22:18:37.885Z,9.20
2023-01-06T22:21:04.936Z,9.20
2023-01-06T22:23:32.095Z,9.20
2023-01-06T22:25:58.852Z,9.30
2023-01-06T22:28:25.689Z,9.30
2023-01-06T22:30:53.586Z,9.30
2023-01-06T22:33:20.394Z,9.30
2023-01-06T22:35:47.439Z,9.30
2023-01-06T22:38:14.272Z,9.30
2023-01-06T22:40:41.058Z,9.30
2023-01-06T22:43:07.897Z,9.30
2023-01-06T22:45:34.876Z,9.20
2023-01-06T22:48:01.716Z,9.30
2023-01-06T22:50:28.592Z,9.30
2023-01-06T22:52:55.588Z,9.30
2023-01-06T22:55:22.730Z,9.30
2023-01-06T22:57:49.543Z,9.30
2023-01-06T23:00:20.246Z,9.20
2023-01-06T23:02:47.201Z,9.20
2023-01-06T23:05:14.209Z,9.20
2023-01-06T23:07:41.683Z,9.20
2023-01-06T23:10:10.062Z,9.30
2023-01-06T23:12:37.708Z,9.30
2023-01-06T23:15:04.883Z,9.30
2023-01-06T23:17:31.931Z,9.40
2023-01-06T23:19:58.684Z,9.40
2023-01-06T23:22:25.519Z,9.50
2023-01-06T23:24:52.416Z,9.50
2023-01-06T23:27:19.185Z,9.50
2023-01-06T23:29:46.199Z,9.50
2023-01-06T23:32:13.043Z,9.50
2023-01-06T23:34:39.807Z,9.50
2023-01-06T23:37:06.555Z,9.50
2023-01-06T23:39:33.368Z,9.50
2023-01-06T23:42:00.125Z,9.50
2023-01-06T23:44:26.882Z,9.50
2023-01-06T23:46:53.638Z,9.50
2023-01-06T23:49:20.548Z,9.50
2023-01-06T23:51:47.327Z,9.50
2023-01-06T23:54:14.211Z,9.50
2023-01-06T23:56:41.208Z,9.50
2023-01-06T23:59:08.487Z,9.50
